sensor_id;sensor_type;location;lat;lon;timestamp;pressure;altitude;pressure_sealevel;temperature;humidity
62697;BME280;48761;42.680;23.312;2023-04-16T00:01:59;94303.69;;;13.58;54.28
62697;BME280;48761;42.680;23.312;2023-04-16T00:04:25;94306.13;;;13.09;54.51
62697;BME280;48761;42.680;23.312;2023-04-16T00:06:51;94265.63;;;12.84;54.75
62697;BME280;48761;42.680;23.312;2023-04-16T00:09:17;94308.34;;;12.94;55.63
62697;BME280;48761;42.680;23.312;2023-04-16T00:11:43;94277.47;;;13.02;55.12
62697;BME280;48761;42.680;23.312;2023-04-16T00:14:09;94296.91;;;13.33;54.35
62697;BME280;48761;42.680;23.312;2023-04-16T00:16:35;94288.47;;;13.48;54.42
62697;BME280;48761;42.680;23.312;2023-04-16T00:19:00;94291.88;;;13.60;53.90
62697;BME280;48761;42.680;23.312;2023-04-16T00:21:26;94295.13;;;13.74;53.59
62697;BME280;48761;42.680;23.312;2023-04-16T00:23:52;94297.78;;;13.84;53.44
62697;BME280;48761;42.680;23.312;2023-04-16T00:26:18;94291.03;;;13.89;53.39
62697;BME280;48761;42.680;23.312;2023-04-16T00:28:44;94298.34;;;13.97;53.28
62697;BME280;48761;42.680;23.312;2023-04-16T00:31:10;94298.44;;;14.06;53.12
62697;BME280;48761;42.680;23.312;2023-04-16T00:33:36;94300.16;;;14.07;53.02
62697;BME280;48761;42.680;23.312;2023-04-16T00:36:02;94296.34;;;14.09;52.59
62697;BME280;48761;42.680;23.312;2023-04-16T00:38:28;94305.34;;;13.98;52.40
62697;BME280;48761;42.680;23.312;2023-04-16T00:40:55;94299.47;;;13.95;51.76
62697;BME280;48761;42.680;23.312;2023-04-16T00:43:21;94296.09;;;13.93;51.36
62697;BME280;48761;42.680;23.312;2023-04-16T00:45:48;94270.41;;;13.62;50.70
62697;BME280;48761;42.680;23.312;2023-04-16T00:48:15;94280.63;;;13.76;50.59
62697;BME280;48761;42.680;23.312;2023-04-16T00:50:41;94294.16;;;13.65;50.27
62697;BME280;48761;42.680;23.312;2023-04-16T00:53:07;94292.44;;;13.64;49.90
62697;BME280;48761;42.680;23.312;2023-04-16T00:55:33;94293.56;;;13.61;48.70
62697;BME280;48761;42.680;23.312;2023-04-16T00:57:59;94292.19;;;13.57;48.45
62697;BME280;48761;42.680;23.312;2023-04-16T01:00:25;94290.75;;;13.63;48.20
62697;BME280;48761;42.680;23.312;2023-04-16T01:02:52;94292.28;;;13.75;47.89
62697;BME280;48761;42.680;23.312;2023-04-16T01:05:19;94291.59;;;13.73;47.45
62697;BME280;48761;42.680;23.312;2023-04-16T01:07:45;94276.69;;;13.61;46.93
62697;BME280;48761;42.680;23.312;2023-04-16T01:10:11;94282.16;;;13.49;46.55
62697;BME280;48761;42.680;23.312;2023-04-16T01:12:37;94287.25;;;13.62;46.39
62697;BME280;48761;42.680;23.312;2023-04-16T01:15:03;94287.25;;;13.62;46.56
62697;BME280;48761;42.680;23.312;2023-04-16T01:17:29;94290.75;;;13.73;46.34
62697;BME280;48761;42.680;23.312;2023-04-16T01:19:59;94280.06;;;13.63;45.97
62697;BME280;48761;42.680;23.312;2023-04-16T01:22:26;94292.28;;;13.75;45.73
62697;BME280;48761;42.680;23.312;2023-04-16T01:24:52;94292.44;;;13.74;45.53
62697;BME280;48761;42.680;23.312;2023-04-16T01:27:18;94300.88;;;13.69;45.45
62697;BME280;48761;42.680;23.312;2023-04-16T01:29:44;94292.88;;;13.69;45.44
62697;BME280;48761;42.680;23.312;2023-04-16T01:32:10;94289.09;;;13.62;45.31
62697;BME280;48761;42.680;23.312;2023-04-16T01:34:36;94285.00;;;13.58;45.43
62697;BME280;48761;42.680;23.312;2023-04-16T01:37:03;94284.72;;;13.61;46.42
62697;BME280;48761;42.680;23.312;2023-04-16T01:39:28;94286.53;;;13.60;46.88
62697;BME280;48761;42.680;23.312;2023-04-16T01:41:55;94258.41;;;13.36;47.24
62697;BME280;48761;42.680;23.312;2023-04-16T01:44:21;94275.13;;;13.38;47.80
62697;BME280;48761;42.680;23.312;2023-04-16T01:46:47;94258.41;;;13.36;47.32
62697;BME280;48761;42.680;23.312;2023-04-16T01:49:14;94267.38;;;13.45;47.31
62697;BME280;48761;42.680;23.312;2023-04-16T01:51:40;94266.00;;;13.41;47.34
62697;BME280;48761;42.680;23.312;2023-04-16T01:54:06;94251.53;;;13.33;47.34
62697;BME280;48761;42.680;23.312;2023-04-16T01:56:32;94236.78;;;13.19;48.22
62697;BME280;48761;42.680;23.312;2023-04-16T01:58:58;94259.53;;;13.33;48.57
62697;BME280;48761;42.680;23.312;2023-04-16T02:01:24;94249.53;;;13.16;49.16
62697;BME280;48761;42.680;23.312;2023-04-16T02:03:50;94266.94;;;13.20;49.18
62697;BME280;48761;42.680;23.312;2023-04-16T02:06:16;94265.97;;;13.21;49.35
62697;BME280;48761;42.680;23.312;2023-04-16T02:08:42;94260.06;;;13.07;49.65
62697;BME280;48761;42.680;23.312;2023-04-16T02:11:08;94272.25;;;13.00;49.67
62697;BME280;48761;42.680;23.312;2023-04-16T02:13:34;94257.22;;;12.48;49.37
62697;BME280;48761;42.680;23.312;2023-04-16T02:16:00;94264.34;;;11.94;50.34
62697;BME280;48761;42.680;23.312;2023-04-16T02:18:26;94274.88;;;11.74;54.63
62697;BME280;48761;42.680;23.312;2023-04-16T02:20:52;94255.06;;;11.13;55.97
62697;BME280;48761;42.680;23.312;2023-04-16T02:23:18;94267.63;;;11.10;56.59
62697;BME280;48761;42.680;23.312;2023-04-16T02:25:45;94258.88;;;11.20;55.81
62697;BME280;48761;42.680;23.312;2023-04-16T02:28:13;94264.44;;;11.28;55.96
62697;BME280;48761;42.680;23.312;2023-04-16T02:30:40;94249.78;;;11.55;54.94
62697;BME280;48761;42.680;23.312;2023-04-16T02:33:07;94264.63;;;11.91;54.29
62697;BME280;48761;42.680;23.312;2023-04-16T02:35:33;94258.84;;;12.07;53.74
62697;BME280;48761;42.680;23.312;2023-04-16T02:38:00;94262.84;;;12.13;53.46
62697;BME280;48761;42.680;23.312;2023-04-16T02:40:27;94240.38;;;11.94;53.35
62697;BME280;48761;42.680;23.312;2023-04-16T02:42:53;94241.81;;;12.20;52.75
62697;BME280;48761;42.680;23.312;2023-04-16T02:45:19;94266.19;;;12.15;53.05
62697;BME280;48761;42.680;23.312;2023-04-16T02:47:46;94261.44;;;12.19;53.16
62697;BME280;48761;42.680;23.312;2023-04-16T02:50:12;94258.47;;;12.43;52.80
62697;BME280;48761;42.680;23.312;2023-04-16T02:52:38;94246.31;;;12.51;52.64
62697;BME280;48761;42.680;23.312;2023-04-16T02:55:05;94258.03;;;12.38;51.93
62697;BME280;48761;42.680;23.312;2023-04-16T02:57:32;94253.66;;;11.84;53.46
62697;BME280;48761;42.680;23.312;2023-04-16T02:59:58;94256.25;;;11.74;53.71
62697;BME280;48761;42.680;23.312;2023-04-16T03:02:24;94243.69;;;12.08;52.88
62697;BME280;48761;42.680;23.312;2023-04-16T03:04:50;94251.88;;;12.16;52.49
62697;BME280;48761;42.680;23.312;2023-04-16T03:07:16;94250.94;;;11.74;53.35
62697;BME280;48761;42.680;23.312;2023-04-16T03:09:42;94248.81;;;11.78;53.30
62697;BME280;48761;42.680;23.312;2023-04-16T03:12:08;94238.66;;;11.62;53.35
62697;BME280;48761;42.680;23.312;2023-04-16T03:14:34;94244.00;;;11.50;53.84
62697;BME280;48761;42.680;23.312;2023-04-16T03:16:59;94255.13;;;11.55;54.20
62697;BME280;48761;42.680;23.312;2023-04-16T03:19:25;94256.72;;;11.80;54.07
62697;BME280;48761;42.680;23.312;2023-04-16T03:21:51;94262.50;;;11.85;54.21
62697;BME280;48761;42.680;23.312;2023-04-16T03:24:17;94264.81;;;11.78;54.76
62697;BME280;48761;42.680;23.312;2023-04-16T03:26:43;94271.09;;;11.55;55.49
62697;BME280;48761;42.680;23.312;2023-04-16T03:29:09;94255.41;;;11.74;54.56
62697;BME280;48761;42.680;23.312;2023-04-16T03:31:35;94262.34;;;11.86;55.43
62697;BME280;48761;42.680;23.312;2023-04-16T03:34:01;94266.44;;;11.69;54.85
62697;BME280;48761;42.680;23.312;2023-04-16T03:36:27;94234.56;;;11.79;54.58
62697;BME280;48761;42.680;23.312;2023-04-16T03:38:53;94270.84;;;12.02;54.22
62697;BME280;48761;42.680;23.312;2023-04-16T03:41:19;94263.13;;;12.20;53.95
62697;BME280;48761;42.680;23.312;2023-04-16T03:43:45;94271.06;;;12.41;53.71
62697;BME280;48761;42.680;23.312;2023-04-16T03:46:10;94275.34;;;12.54;53.57
62697;BME280;48761;42.680;23.312;2023-04-16T03:48:36;94273.66;;;12.53;53.47
62697;BME280;48761;42.680;23.312;2023-04-16T03:51:02;94266.13;;;12.58;53.19
62697;BME280;48761;42.680;23.312;2023-04-16T03:53:28;94260.78;;;12.58;51.91
62697;BME280;48761;42.680;23.312;2023-04-16T03:55:54;94280.06;;;12.40;52.15
62697;BME280;48761;42.680;23.312;2023-04-16T03:58:20;94271.97;;;12.52;51.84
62697;BME280;48761;42.680;23.312;2023-04-16T04:00:46;94278.44;;;12.59;51.59
62697;BME280;48761;42.680;23.312;2023-04-16T04:03:12;94272.66;;;12.54;51.16
62697;BME280;48761;42.680;23.312;2023-04-16T04:05:39;94284.31;;;12.53;51.44
62697;BME280;48761;42.680;23.312;2023-04-16T04:08:06;94284.84;;;12.47;51.41
62697;BME280;48761;42.680;23.312;2023-04-16T04:10:33;94279.97;;;12.20;51.01
62697;BME280;48761;42.680;23.312;2023-04-16T04:13:00;94268.06;;;12.03;51.19
62697;BME280;48761;42.680;23.312;2023-04-16T04:15:26;94278.22;;;11.88;51.29
62697;BME280;48761;42.680;23.312;2023-04-16T04:17:52;94267.97;;;11.93;51.10
62697;BME280;48761;42.680;23.312;2023-04-16T04:20:18;94290.03;;;12.17;50.93
62697;BME280;48761;42.680;23.312;2023-04-16T04:22:44;94259.56;;;11.88;50.87
62697;BME280;48761;42.680;23.312;2023-04-16T04:25:09;94290.34;;;12.24;50.58
62697;BME280;48761;42.680;23.312;2023-04-16T04:27:35;94299.53;;;11.88;51.16
62697;BME280;48761;42.680;23.312;2023-04-16T04:30:02;94304.25;;;11.84;51.44
62697;BME280;48761;42.680;23.312;2023-04-16T04:32:28;94303.72;;;12.12;50.77
62697;BME280;48761;42.680;23.312;2023-04-16T04:34:54;94301.53;;;12.17;50.45
62697;BME280;48761;42.680;23.312;2023-04-16T04:37:20;94278.38;;;11.96;50.51
62697;BME280;48761;42.680;23.312;2023-04-16T04:39:46;94299.53;;;11.88;51.41
62697;BME280;48761;42.680;23.312;2023-04-16T04:42:12;94306.91;;;11.84;51.58
62697;BME280;48761;42.680;23.312;2023-04-16T04:44:38;94300.53;;;11.97;51.39
62697;BME280;48761;42.680;23.312;2023-04-16T04:47:04;94306.72;;;11.97;51.30
62697;BME280;48761;42.680;23.312;2023-04-16T04:49:30;94311.63;;;11.81;51.66
62697;BME280;48761;42.680;23.312;2023-04-16T04:51:56;94315.53;;;11.76;52.29
62697;BME280;48761;42.680;23.312;2023-04-16T04:54:22;94302.13;;;11.45;52.89
62697;BME280;48761;42.680;23.312;2023-04-16T04:56:48;94313.75;;;11.32;53.57
62697;BME280;48761;42.680;23.312;2023-04-16T04:59:14;94302.69;;;11.16;53.98
62697;BME280;48761;42.680;23.312;2023-04-16T05:01:40;94312.50;;;11.04;54.91
62697;BME280;48761;42.680;23.312;2023-04-16T05:04:06;94313.84;;;11.09;55.14
62697;BME280;48761;42.680;23.312;2023-04-16T05:06:32;94312.03;;;10.98;54.78
62697;BME280;48761;42.680;23.312;2023-04-16T05:08:57;94310.91;;;11.24;54.57
62697;BME280;48761;42.680;23.312;2023-04-16T05:11:23;94311.63;;;11.26;54.38
62697;BME280;48761;42.680;23.312;2023-04-16T05:13:49;94310.00;;;11.35;54.26
62697;BME280;48761;42.680;23.312;2023-04-16T05:16:15;94309.66;;;11.28;54.31
62697;BME280;48761;42.680;23.312;2023-04-16T05:18:41;94304.63;;;11.14;54.56
62697;BME280;48761;42.680;23.312;2023-04-16T05:21:07;94308.25;;;11.13;54.47
62697;BME280;48761;42.680;23.312;2023-04-16T05:23:33;94297.28;;;11.06;54.46
62697;BME280;48761;42.680;23.312;2023-04-16T05:25:59;94304.69;;;11.35;54.29
62697;BME280;48761;42.680;23.312;2023-04-16T05:28:25;94310.66;;;11.16;54.77
62697;BME280;48761;42.680;23.312;2023-04-16T05:30:51;94318.22;;;10.99;55.32
62697;BME280;48761;42.680;23.312;2023-04-16T05:33:16;94307.75;;;11.19;54.59
62697;BME280;48761;42.680;23.312;2023-04-16T05:35:42;94299.06;;;11.17;54.65
62697;BME280;48761;42.680;23.312;2023-04-16T05:38:08;94312.78;;;11.34;54.27
62697;BME280;48761;42.680;23.312;2023-04-16T05:40:34;94310.59;;;11.39;54.09
62697;BME280;48761;42.680;23.312;2023-04-16T05:43:00;94307.69;;;11.42;53.71
62697;BME280;48761;42.680;23.312;2023-04-16T05:45:26;94306.28;;;11.26;54.43
62697;BME280;48761;42.680;23.312;2023-04-16T05:47:52;94265.91;;;11.21;54.07
62697;BME280;48761;42.680;23.312;2023-04-16T05:50:18;94311.88;;;11.56;53.63
62697;BME280;48761;42.680;23.312;2023-04-16T05:52:44;94306.38;;;11.69;53.30
62697;BME280;48761;42.680;23.312;2023-04-16T05:55:10;94294.81;;;12.02;52.88
62697;BME280;48761;42.680;23.312;2023-04-16T05:57:36;94297.47;;;12.02;52.33
62697;BME280;48761;42.680;23.312;2023-04-16T06:00:02;94310.25;;;12.19;51.92
62697;BME280;48761;42.680;23.312;2023-04-16T06:02:28;94308.28;;;12.21;51.03
62697;BME280;48761;42.680;23.312;2023-04-16T06:04:53;94309.53;;;12.17;51.20
62697;BME280;48761;42.680;23.312;2023-04-16T06:07:19;94314.19;;;12.04;51.18
62697;BME280;48761;42.680;23.312;2023-04-16T06:09:45;94307.03;;;11.83;51.39
62697;BME280;48761;42.680;23.312;2023-04-16T06:12:11;94312.56;;;12.34;50.85
62697;BME280;48761;42.680;23.312;2023-04-16T06:14:37;94309.19;;;12.32;50.84
62697;BME280;48761;42.680;23.312;2023-04-16T06:17:03;94314.91;;;12.06;51.56
62697;BME280;48761;42.680;23.312;2023-04-16T06:19:29;94309.31;;;12.09;51.95
62697;BME280;48761;42.680;23.312;2023-04-16T06:21:55;94310.38;;;12.18;51.94
62697;BME280;48761;42.680;23.312;2023-04-16T06:24:22;94273.06;;;11.96;51.83
62697;BME280;48761;42.680;23.312;2023-04-16T06:26:47;94288.47;;;12.36;51.88
62697;BME280;48761;42.680;23.312;2023-04-16T06:29:13;94304.25;;;12.27;51.92
62697;BME280;48761;42.680;23.312;2023-04-16T06:31:39;94304.00;;;12.62;51.26
62697;BME280;48761;42.680;23.312;2023-04-16T06:34:05;94290.50;;;12.53;51.45
62697;BME280;48761;42.680;23.312;2023-04-16T06:36:31;94293.41;;;12.82;50.85
62697;BME280;48761;42.680;23.312;2023-04-16T06:38:57;94297.00;;;12.61;51.05
62697;BME280;48761;42.680;23.312;2023-04-16T06:41:23;94299.31;;;12.54;51.66
62697;BME280;48761;42.680;23.312;2023-04-16T06:43:49;94298.69;;;12.72;51.00
62697;BME280;48761;42.680;23.312;2023-04-16T06:46:15;94298.47;;;12.85;50.83
62697;BME280;48761;42.680;23.312;2023-04-16T06:48:41;94306.06;;;12.89;50.56
62697;BME280;48761;42.680;23.312;2023-04-16T06:51:07;94290.44;;;13.26;50.00
62697;BME280;48761;42.680;23.312;2023-04-16T06:53:33;94283.38;;;13.15;49.64
62697;BME280;48761;42.680;23.312;2023-04-16T06:55:59;94288.81;;;13.85;49.03
62697;BME280;48761;42.680;23.312;2023-04-16T06:58:25;94297.19;;;14.10;47.80
62697;BME280;48761;42.680;23.312;2023-04-16T07:00:51;94302.56;;;13.60;48.51
62697;BME280;48761;42.680;23.312;2023-04-16T07:03:17;94275.56;;;13.63;48.60
62697;BME280;48761;42.680;23.312;2023-04-16T07:05:42;94291.88;;;13.90;48.07
62697;BME280;48761;42.680;23.312;2023-04-16T07:08:08;94264.25;;;14.19;47.45
62697;BME280;48761;42.680;23.312;2023-04-16T07:10:34;94295.72;;;14.45;47.42
62697;BME280;48761;42.680;23.312;2023-04-16T07:13:00;94285.50;;;14.59;46.69
62697;BME280;48761;42.680;23.312;2023-04-16T07:15:27;94299.47;;;14.05;48.14
62697;BME280;48761;42.680;23.312;2023-04-16T07:17:53;94291.88;;;13.60;49.02
62697;BME280;48761;42.680;23.312;2023-04-16T07:20:19;94314.22;;;13.89;48.93
62697;BME280;48761;42.680;23.312;2023-04-16T07:22:45;94299.47;;;14.05;48.84
62697;BME280;48761;42.680;23.312;2023-04-16T07:25:11;94303.78;;;14.16;48.33
62697;BME280;48761;42.680;23.312;2023-04-16T07:27:37;94286.75;;;14.27;48.11
62697;BME280;48761;42.680;23.312;2023-04-16T07:30:03;94306.75;;;14.12;48.54
62697;BME280;48761;42.680;23.312;2023-04-16T07:32:29;94303.31;;;14.40;48.42
62697;BME280;48761;42.680;23.312;2023-04-16T07:34:55;94258.97;;;14.48;47.77
62697;BME280;48761;42.680;23.312;2023-04-16T07:37:21;94294.19;;;14.81;47.38
62697;BME280;48761;42.680;23.312;2023-04-16T07:39:47;94300.78;;;14.39;48.09
62697;BME280;48761;42.680;23.312;2023-04-16T07:42:13;94295.94;;;13.94;49.26
62697;BME280;48761;42.680;23.312;2023-04-16T07:44:39;94300.69;;;14.20;49.03
62697;BME280;48761;42.680;23.312;2023-04-16T07:47:04;94304.34;;;14.19;48.90
62697;BME280;48761;42.680;23.312;2023-04-16T07:49:30;94301.72;;;13.99;49.38
62697;BME280;48761;42.680;23.312;2023-04-16T07:51:56;94290.44;;;14.06;49.38
62697;BME280;48761;42.680;23.312;2023-04-16T07:54:22;94301.03;;;13.97;49.49
62697;BME280;48761;42.680;23.312;2023-04-16T07:56:48;94294.94;;;14.15;49.23
62697;BME280;48761;42.680;23.312;2023-04-16T07:59:14;94297.81;;;14.80;48.18
62697;BME280;48761;42.680;23.312;2023-04-16T08:01:40;94301.63;;;15.16;47.34
62697;BME280;48761;42.680;23.312;2023-04-16T08:04:06;94292.28;;;15.20;47.25
62697;BME280;48761;42.680;23.312;2023-04-16T08:06:32;94301.22;;;15.10;48.01
62697;BME280;48761;42.680;23.312;2023-04-16T08:08:58;94296.63;;;15.86;47.30
62697;BME280;48761;42.680;23.312;2023-04-16T08:11:24;94283.56;;;15.64;46.70
62697;BME280;48761;42.680;23.312;2023-04-16T08:13:50;94276.25;;;15.38;47.43
62697;BME280;48761;42.680;23.312;2023-04-16T08:16:15;94286.06;;;15.66;47.25
62697;BME280;48761;42.680;23.312;2023-04-16T08:18:41;94286.38;;;15.63;46.83
62697;BME280;48761;42.680;23.312;2023-04-16T08:21:07;94288.59;;;15.86;46.60
62697;BME280;48761;42.680;23.312;2023-04-16T08:23:33;94284.38;;;16.20;45.56
62697;BME280;48761;42.680;23.312;2023-04-16T08:26:00;94259.41;;;15.83;45.80
62697;BME280;48761;42.680;23.312;2023-04-16T08:28:26;94288.28;;;15.89;46.04
62697;BME280;48761;42.680;23.312;2023-04-16T08:30:52;94280.72;;;15.66;46.42
62697;BME280;48761;42.680;23.312;2023-04-16T08:33:17;94284.84;;;15.78;46.07
62697;BME280;48761;42.680;23.312;2023-04-16T08:35:43;94274.78;;;15.99;45.81
62697;BME280;48761;42.680;23.312;2023-04-16T08:38:09;94275.16;;;16.22;45.23
62697;BME280;48761;42.680;23.312;2023-04-16T08:40:37;94276.63;;;16.43;44.48
62697;BME280;48761;42.680;23.312;2023-04-16T08:43:07;94276.38;;;16.55;44.16
62697;BME280;48761;42.680;23.312;2023-04-16T08:45:35;94254.03;;;16.89;43.71
62697;BME280;48761;42.680;23.312;2023-04-16T08:48:03;94256.56;;;17.34;43.59
62697;BME280;48761;42.680;23.312;2023-04-16T08:50:31;94252.91;;;17.52;42.56
62697;BME280;48761;42.680;23.312;2023-04-16T08:52:59;94254.25;;;17.65;42.64
62697;BME280;48761;42.680;23.312;2023-04-16T08:55:34;94252.69;;;17.29;42.43
62697;BME280;48761;42.680;23.312;2023-04-16T08:58:05;94258.13;;;17.02;42.54
62697;BME280;48761;42.680;23.312;2023-04-16T09:00:33;94264.72;;;16.73;43.50
62697;BME280;48761;42.680;23.312;2023-04-16T09:03:01;94248.47;;;15.94;44.03
62697;BME280;48761;42.680;23.312;2023-04-16T09:05:28;94252.09;;;15.66;44.93
62697;BME280;48761;42.680;23.312;2023-04-16T09:07:54;94243.31;;;15.83;44.60
62697;BME280;48761;42.680;23.312;2023-04-16T09:10:20;94256.72;;;16.19;44.19
62697;BME280;48761;42.680;23.312;2023-04-16T09:12:46;94252.88;;;16.22;44.61
62697;BME280;48761;42.680;23.312;2023-04-16T09:15:12;94251.34;;;16.01;44.71
62697;BME280;48761;42.680;23.312;2023-04-16T09:17:39;94254.47;;;16.33;45.74
62697;BME280;48761;42.680;23.312;2023-04-16T09:20:07;94254.09;;;16.63;44.71
62697;BME280;48761;42.680;23.312;2023-04-16T09:22:36;94234.44;;;16.97;43.81
62697;BME280;48761;42.680;23.312;2023-04-16T09:25:03;94256.81;;;16.71;44.02
62697;BME280;48761;42.680;23.312;2023-04-16T09:27:29;94217.06;;;16.66;42.86
62697;BME280;48761;42.680;23.312;2023-04-16T09:29:55;94244.59;;;16.77;42.84
62697;BME280;48761;42.680;23.312;2023-04-16T09:32:26;94209.28;;;17.07;42.62
62697;BME280;48761;42.680;23.312;2023-04-16T09:34:59;94236.63;;;17.62;41.47
62697;BME280;48761;42.680;23.312;2023-04-16T09:37:29;94248.22;;;18.04;41.11
62697;BME280;48761;42.680;23.312;2023-04-16T09:39:59;94247.88;;;17.83;41.10
62697;BME280;48761;42.680;23.312;2023-04-16T09:42:27;94231.06;;;17.72;41.10
62697;BME280;48761;42.680;23.312;2023-04-16T09:44:54;94243.84;;;17.62;41.74
62697;BME280;48761;42.680;23.312;2023-04-16T09:47:21;94235.47;;;17.81;41.41
62697;BME280;48761;42.680;23.312;2023-04-16T09:49:47;94239.94;;;18.48;40.55
62697;BME280;48761;42.680;23.312;2023-04-16T09:52:21;94207.41;;;18.75;39.85
62697;BME280;48761;42.680;23.312;2023-04-16T09:54:52;94229.69;;;18.52;40.00
62697;BME280;48761;42.680;23.312;2023-04-16T09:57:23;94233.09;;;18.37;40.31
62697;BME280;48761;42.680;23.312;2023-04-16T09:59:53;94198.16;;;17.87;40.70
62697;BME280;48761;42.680;23.312;2023-04-16T10:02:19;94210.78;;;17.69;41.24
62697;BME280;48761;42.680;23.312;2023-04-16T10:04:50;94214.94;;;17.72;41.30
62697;BME280;48761;42.680;23.312;2023-04-16T10:07:17;94188.25;;;17.45;41.65
62697;BME280;48761;42.680;23.312;2023-04-16T10:09:43;94203.50;;;17.28;42.11
62697;BME280;48761;42.680;23.312;2023-04-16T10:12:10;94196.63;;;16.74;42.92
62697;BME280;48761;42.680;23.312;2023-04-16T10:14:36;94216.78;;;16.86;42.88
62697;BME280;48761;42.680;23.312;2023-04-16T10:17:02;94189.34;;;17.01;42.90
62697;BME280;48761;42.680;23.312;2023-04-16T10:19:29;94200.50;;;17.40;42.54
62697;BME280;48761;42.680;23.312;2023-04-16T10:21:54;94178.34;;;17.21;42.16
62697;BME280;48761;42.680;23.312;2023-04-16T10:24:21;94189.66;;;16.98;42.44
62697;BME280;48761;42.680;23.312;2023-04-16T10:26:48;94174.47;;;17.23;41.85
62697;BME280;48761;42.680;23.312;2023-04-16T10:29:16;94194.94;;;16.73;42.65
62697;BME280;48761;42.680;23.312;2023-04-16T10:31:43;94196.34;;;16.85;43.00
62697;BME280;48761;42.680;23.312;2023-04-16T10:34:09;94176.72;;;16.41;42.55
62697;BME280;48761;42.680;23.312;2023-04-16T10:36:36;94160.00;;;16.47;42.76
62697;BME280;48761;42.680;23.312;2023-04-16T10:39:02;94199.19;;;16.49;43.16
62697;BME280;48761;42.680;23.312;2023-04-16T10:41:31;94174.50;;;16.80;43.02
62697;BME280;48761;42.680;23.312;2023-04-16T10:44:05;94189.34;;;17.09;41.92
62697;BME280;48761;42.680;23.312;2023-04-16T10:46:33;94192.59;;;17.30;41.26
62697;BME280;48761;42.680;23.312;2023-04-16T10:49:02;94189.44;;;17.43;40.76
62697;BME280;48761;42.680;23.312;2023-04-16T10:51:37;94193.13;;;17.50;41.24
62697;BME280;48761;42.680;23.312;2023-04-16T10:56:35;94181.72;;;17.81;39.50
62697;BME280;48761;42.680;23.312;2023-04-16T10:59:05;94174.63;;;17.80;39.77
62697;BME280;48761;42.680;23.312;2023-04-16T11:01:45;94164.59;;;17.74;39.43
62697;BME280;48761;42.680;23.312;2023-04-16T11:12:08;94172.84;;;18.46;39.69
62697;BME280;48761;42.680;23.312;2023-04-16T11:14:36;94166.59;;;18.54;40.04
62697;BME280;48761;42.680;23.312;2023-04-16T11:17:02;94160.13;;;18.72;39.43
62697;BME280;48761;42.680;23.312;2023-04-16T11:19:29;94154.41;;;18.75;39.33
62697;BME280;48761;42.680;23.312;2023-04-16T11:21:55;94142.19;;;18.64;39.02
62697;BME280;48761;42.680;23.312;2023-04-16T11:24:21;94153.56;;;18.34;38.96
62697;BME280;48761;42.680;23.312;2023-04-16T11:26:50;94130.91;;;18.03;39.50
62697;BME280;48761;42.680;23.312;2023-04-16T11:29:16;94149.03;;;18.18;39.64
62697;BME280;48761;42.680;23.312;2023-04-16T11:31:52;94137.16;;;18.04;40.15
62697;BME280;48761;42.680;23.312;2023-04-16T11:34:18;94148.75;;;18.04;40.06
62697;BME280;48761;42.680;23.312;2023-04-16T11:36:50;94119.88;;;17.81;40.36
62697;BME280;48761;42.680;23.312;2023-04-16T11:39:17;94135.84;;;17.83;40.73
62697;BME280;48761;42.680;23.312;2023-04-16T11:41:50;94114.56;;;17.23;41.38
62697;BME280;48761;42.680;23.312;2023-04-16T11:44:24;94135.03;;;17.16;41.48
62697;BME280;48761;42.680;23.312;2023-04-16T11:46:51;94131.50;;;17.23;41.18
62697;BME280;48761;42.680;23.312;2023-04-16T11:49:30;94118.59;;;17.19;41.14
62697;BME280;48761;42.680;23.312;2023-04-16T11:51:56;94124.63;;;17.38;41.07
62697;BME280;48761;42.680;23.312;2023-04-16T11:54:23;94090.72;;;17.36;41.04
62697;BME280;48761;42.680;23.312;2023-04-16T11:56:51;94113.53;;;17.66;41.01
62697;BME280;48761;42.680;23.312;2023-04-16T11:59:19;94117.84;;;17.92;40.46
62697;BME280;48761;42.680;23.312;2023-04-16T12:01:48;94117.16;;;17.98;40.08
62697;BME280;48761;42.680;23.312;2023-04-16T12:04:15;94107.44;;;17.89;40.41
62697;BME280;48761;42.680;23.312;2023-04-16T12:07:18;94100.75;;;17.68;40.63
62697;BME280;48761;42.680;23.312;2023-04-16T12:09:44;94100.28;;;17.64;40.49
62697;BME280;48761;42.680;23.312;2023-04-16T12:14:52;94092.09;;;18.06;40.56
62697;BME280;48761;42.680;23.312;2023-04-16T12:17:22;94080.28;;;18.15;40.61
62697;BME280;48761;42.680;23.312;2023-04-16T12:19:54;94073.72;;;18.18;39.88
62697;BME280;48761;42.680;23.312;2023-04-16T12:22:32;94070.25;;;18.09;40.00
62697;BME280;48761;42.680;23.312;2023-04-16T12:25:00;94082.31;;;18.30;40.12
62697;BME280;48761;42.680;23.312;2023-04-16T12:27:46;94083.84;;;18.08;40.42
62697;BME280;48761;42.680;23.312;2023-04-16T12:30:16;94079.19;;;18.01;40.46
62697;BME280;48761;42.680;23.312;2023-04-16T12:32:44;94063.53;;;18.05;40.15
62697;BME280;48761;42.680;23.312;2023-04-16T12:35:11;94074.78;;;18.09;40.84
62697;BME280;48761;42.680;23.312;2023-04-16T12:37:38;94041.63;;;17.85;40.51
62697;BME280;48761;42.680;23.312;2023-04-16T12:40:05;94040.22;;;17.97;40.62
62697;BME280;48761;42.680;23.312;2023-04-16T12:42:31;94039.50;;;18.03;40.30
62697;BME280;48761;42.680;23.312;2023-04-16T12:44:56;94067.25;;;18.04;40.63
62697;BME280;48761;42.680;23.312;2023-04-16T12:47:22;94061.03;;;17.95;40.97
62697;BME280;48761;42.680;23.312;2023-04-16T12:49:48;94062.53;;;17.98;41.07
62697;BME280;48761;42.680;23.312;2023-04-16T12:52:14;94069.41;;;18.09;41.21
62697;BME280;48761;42.680;23.312;2023-04-16T12:54:40;94059.69;;;17.99;40.94
62697;BME280;48761;42.680;23.312;2023-04-16T12:57:06;94075.84;;;17.99;41.39
62697;BME280;48761;42.680;23.312;2023-04-16T12:59:32;94066.41;;;18.03;41.28
62697;BME280;48761;42.680;23.312;2023-04-16T13:02:00;94040.91;;;17.91;42.09